Time;durP1;ratioP1;P1;durP2;ratioP2;P2;SDS_P1;SDS_P2;PMS_P1;PMS_P2;Temp;Humidity;BMP_temperature;BMP_pressure;BME280_temperature;BME280_humidity;BME280_pressure;Samples;Min_cycle;Max_cycle;Signal;HPM_P1;HPM_P2
2022/04/09 00:00:27;;;;;;;16.47;12.57;;;;;;;2.58;100.00;98624.31;4982002;28;20302;-58
2022/04/09 00:02:53;;;;;;;16.33;12.90;;;;;;;2.64;100.00;98637.59;4990841;28;20222;-60
2022/04/09 00:05:18;;;;;;;17.40;12.77;;;;;;;2.67;100.00;98640.03;4992331;28;20318;-58
2022/04/09 00:07:43;;;;;;;16.17;12.53;;;;;;;2.63;100.00;98644.41;4992227;28;20178;-57
2022/04/09 00:10:11;;;;;;;17.23;13.53;;;;;;;2.65;100.00;98644.34;4981941;28;20177;-58
2022/04/09 00:12:38;;;;;;;17.60;13.43;;;;;;;2.59;100.00;98645.41;4991230;28;20259;-59
2022/04/09 00:15:05;;;;;;;16.53;14.23;;;;;;;2.57;100.00;98662.47;4990501;28;20188;-59
2022/04/09 00:17:38;;;;;;;16.67;14.00;;;;;;;2.52;100.00;98659.31;4992053;28;20175;-58
2022/04/09 00:20:04;;;;;;;21.20;14.97;;;;;;;2.51;100.00;98655.94;4982916;28;20283;-59
2022/04/09 00:22:31;;;;;;;20.13;15.67;;;;;;;2.49;100.00;98649.28;4987306;28;20204;-57
2022/04/09 00:24:56;;;;;;;22.27;16.20;;;;;;;2.43;100.00;98665.59;4972185;28;20643;-57
2022/04/09 00:27:22;;;;;;;22.97;16.77;;;;;;;2.47;100.00;98666.28;4972760;28;20212;-58
2022/04/09 00:29:47;;;;;;;20.87;17.13;;;;;;;2.48;100.00;98670.47;4972682;28;20168;-58
2022/04/09 00:32:12;;;;;;;25.17;17.70;;;;;;;2.40;100.00;98670.81;4963489;28;20258;-56
2022/04/09 00:34:38;;;;;;;24.13;17.30;;;;;;;2.45;100.00;98684.13;4976102;28;20188;-56
2022/04/09 00:37:03;;;;;;;20.27;16.53;;;;;;;2.51;100.00;98690.66;4976680;28;20175;-57
2022/04/09 00:39:28;;;;;;;21.83;17.90;;;;;;;2.43;100.00;98706.19;4976588;28;20180;-57
2022/04/09 00:41:53;;;;;;;22.87;17.77;;;;;;;2.41;100.00;98711.34;4979656;28;20219;-58
2022/04/09 00:44:20;;;;;;;20.83;16.30;;;;;;;2.44;100.00;98723.06;4994956;28;20234;-59
2022/04/09 00:46:46;;;;;;;19.80;17.30;;;;;;;2.52;100.00;98727.84;4994712;28;20211;-58
2022/04/09 00:49:12;;;;;;;22.97;17.40;;;;;;;2.40;100.00;98736.78;4995957;28;20254;-58
2022/04/09 00:51:42;;;;;;;20.10;17.13;;;;;;;2.42;100.00;98747.72;4984827;28;20659;-58
2022/04/09 00:54:10;;;;;;;20.93;17.40;;;;;;;2.38;100.00;98753.78;4994823;28;20605;-58
2022/04/09 00:56:38;;;;;;;20.97;16.87;;;;;;;2.44;100.00;98763.69;4994379;28;20198;-58
2022/04/09 00:59:06;;;;;;;23.93;18.13;;;;;;;2.37;100.00;98767.38;4994130;28;20652;-58
2022/04/09 01:01:34;;;;;;;21.80;18.70;;;;;;;2.38;100.00;98771.56;4996762;28;20688;-57
2022/04/09 01:03:59;;;;;;;20.60;18.07;;;;;;;2.39;100.00;98783.38;4993267;28;20274;-58
2022/04/09 01:06:25;;;;;;;23.27;19.17;;;;;;;2.39;100.00;98801.13;4995585;28;20594;-58
2022/04/09 01:08:51;;;;;;;26.07;19.03;;;;;;;2.49;100.00;98796.50;4995507;28;20206;-58
2022/04/09 01:11:17;;;;;;;23.73;18.87;;;;;;;2.44;100.00;98793.34;4987192;28;20235;-58
2022/04/09 01:13:44;;;;;;;24.33;18.07;;;;;;;2.41;100.00;98812.88;5000371;28;20290;-58
2022/04/09 01:16:10;;;;;;;22.20;17.73;;;;;;;2.41;100.00;98823.03;4993588;28;20183;-58
2022/04/09 01:18:36;;;;;;;23.87;18.13;;;;;;;2.39;100.00;98823.97;4994350;28;20196;-58
2022/04/09 01:21:03;;;;;;;26.17;19.10;;;;;;;2.37;100.00;98828.28;4987014;28;20226;-57
2022/04/09 01:23:29;;;;;;;24.53;19.33;;;;;;;2.45;100.00;98835.59;4981772;28;20675;-58
2022/04/09 01:25:56;;;;;;;22.60;19.17;;;;;;;2.41;100.00;98842.50;4990135;28;20612;-58
2022/04/09 01:28:22;;;;;;;21.27;18.03;;;;;;;2.43;100.00;98845.78;4974232;28;20666;-56
2022/04/09 01:30:47;;;;;;;20.53;18.20;;;;;;;2.41;100.00;98845.06;4977393;28;20226;-57
2022/04/09 01:33:20;;;;;;;25.30;19.47;;;;;;;2.45;100.00;98859.25;4984044;28;20270;-57
2022/04/09 01:35:46;;;;;;;20.43;17.57;;;;;;;2.41;100.00;98856.00;4974066;28;20274;-57
2022/04/09 01:38:12;;;;;;;24.97;18.17;;;;;;;2.45;100.00;98864.34;4975218;28;20223;-58
2022/04/09 01:40:38;;;;;;;23.60;17.73;;;;;;;2.46;100.00;98866.00;4976406;28;20594;-57
2022/04/09 01:43:04;;;;;;;21.20;17.00;;;;;;;2.49;100.00;98872.66;4993156;28;20210;-58
2022/04/09 01:45:29;;;;;;;20.77;17.40;;;;;;;2.54;100.00;98883.44;4992978;28;20584;-58
2022/04/09 01:47:55;;;;;;;20.83;14.93;;;;;;;2.54;100.00;98886.81;4994574;28;20269;-58
2022/04/09 01:50:21;;;;;;;17.23;13.87;;;;;;;2.62;100.00;98895.81;4984378;28;20266;-57
2022/04/09 01:52:47;;;;;;;13.77;12.07;;;;;;;2.67;100.00;98904.09;4993562;28;20180;-56
2022/04/09 01:55:12;;;;;;;15.70;13.37;;;;;;;2.77;100.00;98904.50;4993969;28;20245;-57
2022/04/09 01:57:38;;;;;;;16.63;12.33;;;;;;;2.81;100.00;98918.75;4994669;28;20175;-57
2022/04/09 02:00:10;;;;;;;15.50;12.87;;;;;;;2.77;100.00;98923.13;4986646;28;20183;-58
2022/04/09 02:02:35;;;;;;;14.17;11.37;;;;;;;2.76;100.00;98934.16;5008672;28;20199;-58
2022/04/09 02:05:02;;;;;;;17.63;12.27;;;;;;;2.77;100.00;98940.06;4993878;28;20748;-57
2022/04/09 02:07:27;;;;;;;15.10;11.77;;;;;;;2.88;100.00;98956.53;4993133;28;20193;-57
2022/04/09 02:09:53;;;;;;;13.37;11.73;;;;;;;2.84;100.00;98960.09;4994064;28;20214;-58
2022/04/09 02:12:19;;;;;;;13.40;11.10;;;;;;;2.85;100.00;98965.97;4984005;28;20592;-58
2022/04/09 02:14:44;;;;;;;15.10;11.13;;;;;;;2.80;100.00;98972.97;4993859;28;20191;-58
2022/04/09 02:17:10;;;;;;;15.43;10.43;;;;;;;2.85;100.00;98974.44;4994204;28;20627;-58
2022/04/09 02:19:35;;;;;;;13.17;8.83;;;;;;;2.81;100.00;98983.06;4994207;28;20337;-57
2022/04/09 02:22:00;;;;;;;15.17;10.20;;;;;;;2.77;100.00;98985.78;4998816;28;20222;-57
2022/04/09 02:24:25;;;;;;;13.77;9.37;;;;;;;2.95;100.00;98996.91;4974903;28;20576;-59
2022/04/09 02:26:51;;;;;;;13.40;9.47;;;;;;;3.03;100.00;99005.88;4975073;28;20180;-57
2022/04/09 02:29:16;;;;;;;17.33;9.90;;;;;;;3.04;100.00;99001.63;4974484;28;20179;-58
2022/04/09 02:31:41;;;;;;;12.73;8.73;;;;;;;3.00;100.00;99012.78;4990198;28;20226;-58
2022/04/09 02:34:06;;;;;;;15.57;9.53;;;;;;;3.05;100.00;99019.34;4979378;28;20224;-58
2022/04/09 02:36:32;;;;;;;16.10;10.23;;;;;;;3.01;100.00;99020.34;4974416;28;20543;-59
2022/04/09 02:38:58;;;;;;;12.20;9.23;;;;;;;2.94;100.00;99026.59;4991774;28;20189;-58
2022/04/09 02:41:23;;;;;;;10.43;9.33;;;;;;;2.96;100.00;99027.31;4993789;28;20231;-58
2022/04/09 02:43:49;;;;;;;12.67;8.07;;;;;;;2.85;100.00;99032.00;4998074;28;20197;-58
2022/04/09 02:46:15;;;;;;;10.33;8.63;;;;;;;2.84;100.00;99040.53;4993589;28;20684;-58
2022/04/09 02:48:41;;;;;;;11.97;8.97;;;;;;;2.87;100.00;99056.47;4992053;28;20182;-58
2022/04/09 02:51:06;;;;;;;11.60;9.13;;;;;;;2.92;100.00;99065.63;4982958;28;20358;-58
2022/04/09 02:53:32;;;;;;;10.53;7.70;;;;;;;2.89;100.00;99067.41;4983802;28;20179;-57
2022/04/09 02:55:57;;;;;;;12.50;8.70;;;;;;;2.90;100.00;99068.22;4992243;28;20177;-57
2022/04/09 02:58:22;;;;;;;15.37;8.67;;;;;;;2.84;100.00;99074.38;4993476;28;20175;-58
2022/04/09 03:00:48;;;;;;;14.10;8.27;;;;;;;2.79;100.00;99080.50;4979210;28;20669;-58
2022/04/09 03:03:13;;;;;;;13.93;7.83;;;;;;;2.85;100.00;99087.91;4991017;28;20262;-57
2022/04/09 03:05:38;;;;;;;10.63;7.13;;;;;;;3.03;100.00;99088.91;4991963;28;20183;-59
2022/04/09 03:08:04;;;;;;;12.73;8.13;;;;;;;3.03;100.00;99107.50;4993080;28;20199;-59
2022/04/09 03:10:29;;;;;;;10.23;7.37;;;;;;;3.14;100.00;99107.06;4986715;28;20699;-58
2022/04/09 03:12:56;;;;;;;12.80;6.80;;;;;;;3.23;100.00;99108.44;5004601;28;20207;-58
2022/04/09 03:15:21;;;;;;;13.43;6.93;;;;;;;3.22;100.00;99114.41;4984046;28;20247;-58
2022/04/09 03:17:47;;;;;;;12.40;6.60;;;;;;;3.42;100.00;99110.22;4991819;28;20185;-58
2022/04/09 03:20:12;;;;;;;9.43;6.23;;;;;;;3.41;100.00;99123.81;4984087;28;20210;-58
2022/04/09 03:22:43;;;;;;;9.23;6.40;;;;;;;3.35;100.00;99129.97;5001778;28;20188;-59
2022/04/09 03:25:08;;;;;;;11.17;6.80;;;;;;;3.35;100.00;99130.81;4971878;28;20201;-61
2022/04/09 03:27:34;;;;;;;11.20;5.90;;;;;;;3.40;100.00;99143.34;4973578;28;20181;-60
2022/04/09 03:29:59;;;;;;;10.27;5.47;;;;;;;3.35;100.00;99142.69;4973195;28;20693;-59
2022/04/09 03:32:24;;;;;;;9.67;5.33;;;;;;;3.27;100.00;99137.91;4959245;28;20232;-59
2022/04/09 03:34:49;;;;;;;10.20;5.40;;;;;;;3.19;100.00;99143.31;4976595;28;20187;-59
2022/04/09 03:37:15;;;;;;;9.00;3.97;;;;;;;3.24;100.00;99155.84;4992606;28;20184;-60
2022/04/09 03:39:43;;;;;;;11.63;3.87;;;;;;;3.22;100.00;99157.59;4992565;28;20183;-59
2022/04/09 03:42:09;;;;;;;10.37;4.97;;;;;;;3.33;100.00;99167.34;4997811;28;20239;-58
2022/04/09 03:44:34;;;;;;;15.50;5.37;;;;;;;3.20;100.00;99160.22;4990904;28;20569;-59
2022/04/09 03:47:05;;;;;;;9.77;3.73;;;;;;;3.20;100.00;99156.81;4992723;28;20188;-59
2022/04/09 03:49:31;;;;;;;6.90;3.87;;;;;;;3.13;100.00;99155.44;4992511;28;20545;-58
2022/04/09 03:51:56;;;;;;;9.30;3.20;;;;;;;3.23;100.00;99164.34;4981290;28;20229;-59
2022/04/09 03:54:22;;;;;;;7.87;3.90;;;;;;;3.18;100.00;99171.31;4992138;28;20182;-58
2022/04/09 03:56:48;;;;;;;9.93;3.63;;;;;;;3.14;100.00;99163.00;4991369;28;20200;-58
2022/04/09 03:59:13;;;;;;;7.87;3.50;;;;;;;2.99;100.00;99168.66;4992584;28;20179;-58
2022/04/09 04:01:39;;;;;;;7.67;3.60;;;;;;;2.91;100.00;99176.56;4994393;28;20308;-59
2022/04/09 04:04:05;;;;;;;10.47;3.97;;;;;;;2.82;100.00;99179.47;4994462;28;20327;-58
2022/04/09 04:06:31;;;;;;;9.73;3.40;;;;;;;2.75;100.00;99178.84;4990910;28;20176;-59
2022/04/09 04:08:57;;;;;;;11.50;3.23;;;;;;;2.70;100.00;99184.09;4990815;28;20195;-59
2022/04/09 04:11:23;;;;;;;13.97;2.87;;;;;;;2.76;100.00;99185.59;4992431;28;20627;-59
2022/04/09 04:13:49;;;;;;;9.00;3.07;;;;;;;2.78;100.00;99191.44;5006248;28;20294;-59
2022/04/09 04:16:15;;;;;;;9.17;3.13;;;;;;;2.74;100.00;99194.97;5009614;28;20318;-59
2022/04/09 04:18:40;;;;;;;11.10;2.90;;;;;;;2.61;100.00;99203.94;5010564;28;20626;-59
2022/04/09 04:21:05;;;;;;;13.83;3.20;;;;;;;2.74;100.00;99212.75;5000987;28;20230;-58
2022/04/09 04:23:31;;;;;;;13.57;3.97;;;;;;;2.69;100.00;99215.47;4993668;28;20209;-58
2022/04/09 04:25:56;;;;;;;10.70;3.20;;;;;;;2.66;100.00;99223.19;4991946;28;20741;-56
2022/04/09 04:28:21;;;;;;;7.77;3.00;;;;;;;2.64;100.00;99222.44;4992303;28;20179;-57
2022/04/09 04:30:47;;;;;;;9.23;3.07;;;;;;;2.77;100.00;99229.56;4981901;28;20317;-58
2022/04/09 04:33:12;;;;;;;9.23;2.87;;;;;;;2.68;100.00;99234.13;4990287;28;20309;-58
2022/04/09 04:35:37;;;;;;;11.27;3.63;;;;;;;2.69;100.00;99245.09;4992008;28;20222;-59
2022/04/09 04:38:03;;;;;;;13.73;2.80;;;;;;;2.66;100.00;99251.13;4992138;28;20258;-58
2022/04/09 04:40:28;;;;;;;9.33;2.80;;;;;;;2.53;100.00;99250.75;4981990;28;20687;-58
2022/04/09 04:42:53;;;;;;;9.73;3.47;;;;;;;2.50;100.00;99266.06;4990712;28;20230;-60
2022/04/09 04:45:19;;;;;;;7.83;3.20;;;;;;;2.47;100.00;99266.19;4991898;28;20227;-58
2022/04/09 04:47:46;;;;;;;9.20;3.20;;;;;;;2.51;100.00;99271.97;4992236;28;20613;-58
2022/04/09 04:50:12;;;;;;;11.33;3.43;;;;;;;2.63;100.00;99283.41;4981736;28;20182;-58
2022/04/09 04:52:38;;;;;;;7.90;3.13;;;;;;;2.66;100.00;99286.66;4975815;28;20172;-58
2022/04/09 04:55:03;;;;;;;9.20;3.40;;;;;;;2.77;100.00;99288.84;4991689;28;20185;-58
2022/04/09 04:57:30;;;;;;;8.43;2.93;;;;;;;2.69;100.00;99299.28;4992422;28;20283;-59
2022/04/09 04:59:58;;;;;;;8.53;2.63;;;;;;;2.66;100.00;99294.28;4990389;28;20588;-58
2022/04/09 05:02:23;;;;;;;9.57;2.57;;;;;;;2.54;100.00;99298.09;4981058;28;20231;-57
2022/04/09 05:04:48;;;;;;;7.90;2.50;;;;;;;2.55;100.00;99302.28;4991409;28;20245;-59
2022/04/09 05:07:14;;;;;;;9.43;2.90;;;;;;;2.56;100.00;99319.16;4991826;28;20176;-58
2022/04/09 05:09:39;;;;;;;5.50;2.63;;;;;;;2.47;100.00;99318.66;4991496;28;20270;-58
2022/04/09 05:12:04;;;;;;;9.03;3.00;;;;;;;2.60;100.00;99329.22;4966767;28;20224;-59
2022/04/09 05:14:30;;;;;;;9.73;2.63;;;;;;;2.52;100.00;99332.03;5006562;28;20173;-58
2022/04/09 05:16:57;;;;;;;7.60;2.80;;;;;;;2.64;100.00;99335.84;4991757;28;20204;-58
2022/04/09 05:19:22;;;;;;;9.03;3.00;;;;;;;2.41;100.00;99337.47;4992220;28;20185;-58
2022/04/09 05:21:48;;;;;;;11.67;3.60;;;;;;;2.45;100.00;99345.81;4984061;28;20306;-57
2022/04/09 05:24:13;;;;;;;9.03;2.93;;;;;;;2.51;100.00;99348.97;5000272;28;20225;-60
2022/04/09 05:26:38;;;;;;;11.50;3.50;;;;;;;2.74;100.00;99360.88;5011520;28;20545;-60
2022/04/09 05:29:04;;;;;;;13.07;3.83;;;;;;;2.83;100.00;99362.28;5010155;28;20274;-61
2022/04/09 05:31:29;;;;;;;8.63;2.63;;;;;;;2.93;100.00;99367.03;4981220;28;20228;-61
2022/04/09 05:33:55;;;;;;;11.93;3.13;;;;;;;3.04;100.00;99362.44;4998581;28;20272;-60
2022/04/09 05:36:21;;;;;;;13.43;3.07;;;;;;;3.10;100.00;99371.53;5009460;28;20294;-60
2022/04/09 05:38:46;;;;;;;9.63;4.10;;;;;;;3.22;100.00;99369.41;5014185;28;20304;-59
2022/04/09 05:41:11;;;;;;;8.73;3.90;;;;;;;3.14;100.00;99373.06;4997860;28;20279;-59
2022/04/09 05:43:37;;;;;;;9.53;3.03;;;;;;;3.21;100.00;99377.06;5012705;28;20257;-61
2022/04/09 05:46:02;;;;;;;8.70;3.77;;;;;;;3.16;100.00;99373.84;5009937;28;20191;-59
2022/04/09 05:48:28;;;;;;;12.63;3.90;;;;;;;3.02;100.00;99385.31;5010628;28;20230;-61
2022/04/09 05:50:53;;;;;;;12.97;3.23;;;;;;;2.99;100.00;99384.59;4995571;28;20777;-60
2022/04/09 05:53:18;;;;;;;7.10;2.77;;;;;;;3.07;100.00;99392.81;5000028;28;20268;-60
2022/04/09 05:55:43;;;;;;;10.60;2.90;;;;;;;3.09;100.00;99396.13;5013049;28;20675;-60
2022/04/09 05:58:09;;;;;;;9.20;3.13;;;;;;;3.11;100.00;99398.59;5013534;28;20630;-61
2022/04/09 06:00:34;;;;;;;10.93;2.97;;;;;;;3.17;100.00;99399.22;5003692;28;20230;-60
2022/04/09 06:03:00;;;;;;;9.27;3.23;;;;;;;3.40;100.00;99407.75;5012535;28;20210;-60
2022/04/09 06:05:26;;;;;;;10.80;3.67;;;;;;;3.46;100.00;99412.63;5012127;28;20327;-60
2022/04/09 06:07:51;;;;;;;7.30;2.57;;;;;;;3.55;100.00;99411.44;5011643;28;20478;-61
2022/04/09 06:10:17;;;;;;;6.30;2.77;;;;;;;3.69;100.00;99419.38;5001690;28;20190;-61
2022/04/09 06:12:42;;;;;;;9.90;2.70;;;;;;;3.74;100.00;99431.13;4986404;28;20173;-62
2022/04/09 06:15:08;;;;;;;8.83;2.60;;;;;;;3.86;100.00;99434.03;5010501;28;20194;-59
2022/04/09 06:17:35;;;;;;;9.67;3.40;;;;;;;4.13;100.00;99435.56;5013615;28;20178;-61
2022/04/09 06:20:02;;;;;;;9.30;2.80;;;;;;;4.16;97.34;99443.91;4967087;28;20225;-61
2022/04/09 06:22:27;;;;;;;10.13;2.87;;;;;;;4.28;96.70;99452.81;4982827;28;20222;-62
2022/04/09 06:24:52;;;;;;;8.33;2.73;;;;;;;4.30;96.51;99457.84;5012289;28;20267;-61
2022/04/09 06:27:18;;;;;;;8.70;2.70;;;;;;;4.11;95.30;99462.81;5008696;28;20253;-59
2022/04/09 06:29:43;;;;;;;6.10;3.20;;;;;;;4.25;95.55;99463.09;4994549;28;20193;-61
2022/04/09 06:32:08;;;;;;;8.00;2.63;;;;;;;4.29;94.67;99461.25;4983733;28;20241;-63
2022/04/09 06:34:34;;;;;;;8.07;2.40;;;;;;;4.35;92.82;99468.66;4957187;28;20292;-63
2022/04/09 06:36:59;;;;;;;8.60;2.63;;;;;;;4.77;92.45;99467.03;5010115;28;20261;-62
2022/04/09 06:39:25;;;;;;;11.67;3.13;;;;;;;4.59;92.71;99473.69;5011307;28;20261;-62
2022/04/09 06:41:51;;;;;;;8.07;2.50;;;;;;;4.80;90.17;99465.19;4994448;28;20237;-63
2022/04/09 06:44:16;;;;;;;6.87;2.77;;;;;;;5.57;86.79;99478.97;5002832;28;20262;-61
2022/04/09 06:46:43;;;;;;;7.33;3.33;;;;;;;5.73;83.45;99483.38;5013237;28;20538;-71
2022/04/09 06:49:15;;;;;;;11.03;3.10;;;;;;;5.96;82.09;99490.81;5004958;28;20171;-70
2022/04/09 06:51:42;;;;;;;7.90;2.95;;;;;;;6.82;77.58;99495.41;5002810;28;20446;-74
2022/04/09 06:54:07;;;;;;;6.33;2.07;;;;;;;7.25;74.76;99505.25;5007240;28;20185;-70
2022/04/09 06:56:33;;;;;;;4.93;2.10;;;;;;;8.11;70.60;99494.00;5010984;28;20691;-69
2022/04/09 06:58:58;;;;;;;5.20;2.70;;;;;;;8.52;65.73;99501.16;5012221;28;20181;-69
2022/04/09 07:01:23;;;;;;;7.17;2.30;;;;;;;8.14;64.50;99507.47;5002101;28;20230;-70
2022/04/09 07:03:49;;;;;;;12.13;3.03;;;;;;;8.65;64.86;99507.28;5016461;28;20238;-68
2022/04/09 07:06:16;;;;;;;8.93;2.40;;;;;;;9.87;59.61;99490.81;5011871;28;20634;-61
2022/04/09 07:08:41;;;;;;;7.60;2.93;;;;;;;11.53;53.07;99496.50;5012401;28;20274;-61
2022/04/09 07:11:06;;;;;;;6.77;2.13;;;;;;;11.92;48.64;99492.91;5009799;28;20710;-63
2022/04/09 07:13:32;;;;;;;8.60;2.87;;;;;;;12.64;47.72;99501.63;5019058;28;20663;-61
2022/04/09 07:15:57;;;;;;;6.20;2.27;;;;;;;13.10;45.93;99504.31;5009206;28;20599;-62
2022/04/09 07:18:23;;;;;;;6.27;2.30;;;;;;;13.61;44.45;99503.94;5020839;28;20189;-62
2022/04/09 07:20:48;;;;;;;8.70;2.90;;;;;;;14.84;42.52;99515.88;5008488;28;20217;-61
2022/04/09 07:23:14;;;;;;;6.67;2.23;;;;;;;14.55;42.46;99521.63;5006389;28;20662;-60
2022/04/09 07:25:42;;;;;;;6.83;2.40;;;;;;;13.12;44.27;99523.94;4992321;28;20207;-64
2022/04/09 07:28:07;;;;;;;10.90;2.73;;;;;;;12.06;46.36;99530.63;4991154;28;20183;-61
2022/04/09 07:30:32;;;;;;;7.80;2.67;;;;;;;12.37;47.46;99533.63;4966494;28;20685;-61
2022/04/09 07:32:57;;;;;;;5.00;2.40;;;;;;;12.51;45.19;99535.22;5003681;28;20183;-63
2022/04/09 07:35:24;;;;;;;9.43;3.27;;;;;;;12.46;46.42;99533.91;4993225;28;20175;-61
2022/04/09 07:37:51;;;;;;;9.30;2.93;;;;;;;12.30;46.54;99536.75;4991409;28;20190;-64
2022/04/09 07:40:19;;;;;;;7.73;2.90;;;;;;;12.39;45.75;99541.25;4984524;28;20226;-61
2022/04/09 07:42:46;;;;;;;6.97;2.53;;;;;;;11.86;47.36;99538.91;4990834;28;20190;-62
2022/04/09 07:45:13;;;;;;;9.70;2.50;;;;;;;11.83;47.08;99537.34;4992026;28;20183;-62
2022/04/09 07:47:38;;;;;;;7.70;3.00;;;;;;;13.24;44.90;99533.34;4992456;28;20190;-62
2022/04/09 07:50:07;;;;;;;6.90;2.80;;;;;;;14.85;41.70;99539.06;4983417;28;20183;-60
2022/04/09 07:52:32;;;;;;;10.43;3.00;;;;;;;15.66;40.03;99535.00;4991227;28;20187;-60
2022/04/09 07:54:58;;;;;;;7.03;2.53;;;;;;;16.04;38.37;99541.31;4991879;28;20650;-60
2022/04/09 07:57:27;;;;;;;9.30;3.03;;;;;;;14.76;41.17;99539.81;4992545;28;20171;-60
2022/04/09 07:59:55;;;;;;;7.43;2.50;;;;;;;12.25;44.47;99555.13;4990742;28;20187;-62
2022/04/09 08:02:22;;;;;;;8.77;3.00;;;;;;;11.25;48.28;99557.56;4998295;28;20313;-62
2022/04/09 08:04:48;;;;;;;8.07;2.37;;;;;;;11.24;49.47;99559.31;4992037;28;20254;-63
2022/04/09 08:07:14;;;;;;;11.27;2.57;;;;;;;10.38;50.66;99551.97;4992308;28;20183;-62
2022/04/09 08:09:39;;;;;;;11.00;2.77;;;;;;;9.41;54.02;99561.16;4992330;28;20190;-61
2022/04/09 08:12:05;;;;;;;9.33;2.83;;;;;;;9.37;55.74;99558.75;5000090;28;20229;-62
2022/04/09 08:17:56;;;;;;;9.80;2.60;;;;;;;10.73;51.80;99560.03;4991480;28;20279;-65
2022/04/09 08:23:44;;;;;;;5.93;2.07;;;;;;;12.34;46.80;99557.06;4990856;28;20229;-62
2022/04/09 08:26:09;;;;;;;6.07;2.53;;;;;;;12.73;46.00;99567.22;4992076;28;20207;-59
2022/04/09 08:28:36;;;;;;;7.63;2.23;;;;;;;12.94;44.92;99570.00;4992205;28;20195;-57
2022/04/09 08:31:02;;;;;;;8.70;2.43;;;;;;;13.45;43.41;99562.91;4989614;28;20218;-56
2022/04/09 08:33:27;;;;;;;8.23;2.77;;;;;;;14.06;41.26;99572.88;4990548;28;20167;-57
2022/04/09 08:35:53;;;;;;;13.73;3.10;;;;;;;13.69;43.18;99568.81;4992137;28;20175;-57
2022/04/09 08:38:18;;;;;;;8.10;2.70;;;;;;;14.07;42.44;99578.91;4990667;28;20250;-57
2022/04/09 08:40:45;;;;;;;6.63;2.30;;;;;;;14.91;40.07;99586.09;4987232;28;20280;-56
2022/04/09 08:43:10;;;;;;;5.40;2.10;;;;;;;14.76;39.13;99580.41;5001102;28;20206;-57
2022/04/09 08:45:40;;;;;;;8.50;2.30;;;;;;;13.48;41.32;99598.81;4991830;28;20184;-56
2022/04/09 08:48:08;;;;;;;5.47;2.20;;;;;;;13.16;42.38;99595.09;4987706;28;20176;-57
2022/04/09 08:50:35;;;;;;;8.70;2.87;;;;;;;13.91;41.43;99600.75;4963989;28;20285;-60
2022/04/09 08:53:06;;;;;;;7.67;2.40;;;;;;;13.19;41.79;99594.03;4991020;28;20670;-59
2022/04/09 08:55:34;;;;;;;7.30;2.30;;;;;;;12.86;41.78;99582.66;4996176;28;20222;-59
2022/04/09 08:58:00;;;;;;;6.80;2.60;;;;;;;12.90;42.64;99595.22;4996120;28;20207;-60
2022/04/09 09:00:25;;;;;;;7.27;2.43;;;;;;;12.04;45.00;99599.50;4988654;28;20706;-59
2022/04/09 09:02:55;;;;;;;7.00;2.40;;;;;;;13.42;43.07;99605.28;5007834;28;20262;-65
2022/04/09 09:05:37;;;;;;;10.73;2.80;;;;;;;13.04;44.21;99606.31;4995658;28;20231;-68
2022/04/09 09:08:04;;;;;;;6.83;2.80;;;;;;;13.69;41.97;99609.31;5010208;28;20543;-62
2022/04/09 09:10:29;;;;;;;5.17;1.90;;;;;;;14.84;40.78;99606.50;5003479;28;20347;-60
2022/04/09 09:13:00;;;;;;;6.80;2.03;;;;;;;14.78;39.49;99604.41;5006406;28;20658;-60
2022/04/09 09:15:26;;;;;;;6.27;2.30;;;;;;;14.95;38.17;99613.41;4994166;28;20176;-60
2022/04/09 09:17:59;;;;;;;6.43;2.40;;;;;;;15.32;37.21;99620.78;5010389;28;20190;-60
2022/04/09 09:20:25;;;;;;;8.27;2.50;;;;;;;16.29;35.76;99622.22;5000058;28;20254;-60
2022/04/09 09:22:52;;;;;;;7.30;2.30;;;;;;;16.60;34.13;99619.56;4993961;28;20180;-60
2022/04/09 09:25:18;;;;;;;8.17;2.33;;;;;;;15.46;34.60;99623.03;4995003;28;20746;-61
2022/04/09 09:27:43;;;;;;;5.73;2.03;;;;;;;16.46;32.91;99631.16;4995387;28;20267;-60
2022/04/09 09:30:12;;;;;;;4.63;2.00;;;;;;;15.33;33.70;99641.38;4984509;28;20654;-60
2022/04/09 09:32:41;;;;;;;3.57;2.10;;;;;;;15.30;34.99;99639.03;4993856;28;20179;-59
2022/04/09 09:35:09;;;;;;;6.73;2.13;;;;;;;14.94;34.57;99635.06;4993542;28;20653;-60
2022/04/09 09:37:35;;;;;;;7.37;1.90;;;;;;;13.52;36.74;99637.25;4993669;28;20594;-61
2022/04/09 09:40:00;;;;;;;5.07;1.80;;;;;;;13.06;39.33;99643.16;4994603;28;20630;-61
2022/04/09 09:42:26;;;;;;;6.20;2.00;;;;;;;12.92;39.33;99646.72;4983756;28;20223;-61
2022/04/09 09:44:52;;;;;;;5.07;1.73;;;;;;;12.37;39.10;99639.38;4994484;28;20701;-60
2022/04/09 09:47:17;;;;;;;6.87;1.93;;;;;;;11.11;41.31;99644.25;4995051;28;20235;-61
2022/04/09 09:49:58;;;;;;;4.33;1.50;;;;;;;10.44;42.92;99651.84;4993430;28;20553;-59
2022/04/09 09:52:32;;;;;;;5.10;1.83;;;;;;;12.04;40.80;99652.84;4967357;28;20219;-62
2022/04/09 09:55:10;;;;;;;3.93;1.97;;;;;;;13.56;37.91;99646.41;4993002;28;20179;-62
2022/04/09 09:57:38;;;;;;;3.43;1.80;;;;;;;15.13;34.58;99643.00;4994818;28;20175;-59
2022/04/09 10:00:06;;;;;;;5.90;2.40;;;;;;;14.29;36.13;99653.88;4969943;28;20175;-60
2022/04/09 10:02:33;;;;;;;6.67;1.93;;;;;;;12.26;39.36;99639.31;5008855;28;20345;-61
2022/04/09 10:05:00;;;;;;;4.10;1.87;;;;;;;10.68;42.91;99656.41;4993592;28;20227;-61
2022/04/09 10:07:25;;;;;;;4.00;1.67;;;;;;;10.06;44.09;99647.25;4993253;28;20178;-60
2022/04/09 10:09:53;;;;;;;4.67;2.10;;;;;;;10.58;44.95;99651.84;4993020;28;20175;-62
2022/04/09 10:12:23;;;;;;;6.50;1.90;;;;;;;11.58;43.72;99657.50;4999721;28;20230;-62
2022/04/09 10:14:54;;;;;;;5.90;1.90;;;;;;;13.98;37.83;99653.66;4993936;28;20635;-61
2022/04/09 10:17:21;;;;;;;4.40;1.70;;;;;;;15.52;34.91;99654.56;5008807;28;20649;-59
2022/04/09 10:19:54;;;;;;;6.30;2.00;;;;;;;15.95;32.77;99658.81;5008823;28;20602;-58
2022/04/09 10:22:22;;;;;;;5.87;2.00;;;;;;;17.02;32.33;99660.09;4976436;28;20223;-60
2022/04/09 10:24:50;;;;;;;4.73;1.70;;;;;;;15.94;32.10;99667.56;4972777;28;20214;-59
2022/04/09 10:27:43;;;;;;;6.17;2.10;;;;;;;15.12;35.34;99663.84;4973400;28;20192;-59
2022/04/09 10:30:18;;;;;;;5.53;2.10;;;;;;;15.03;34.99;99672.38;4946115;28;20481;-58
2022/04/09 10:32:48;;;;;;;5.57;2.10;;;;;;;13.96;36.86;99665.06;4959609;28;20282;-60
2022/04/09 10:35:28;;;;;;;9.10;2.20;;;;;;;12.63;38.12;99672.00;4974120;28;20195;-60
2022/04/09 10:38:06;;;;;;;4.87;1.90;;;;;;;11.88;39.97;99671.88;4974258;28;20199;-61
2022/04/09 10:40:31;;;;;;;6.83;1.90;;;;;;;11.69;41.38;99681.75;4966067;28;20241;-62
2022/04/09 10:42:57;;;;;;;7.23;2.10;;;;;;;11.67;42.56;99679.28;4979962;28;20179;-61
2022/04/09 10:45:22;;;;;;;7.67;2.00;;;;;;;11.52;43.21;99693.16;4992443;28;20654;-61
2022/04/09 10:48:10;;;;;;;6.70;2.00;;;;;;;11.51;41.39;99678.63;4993648;28;20179;-62
2022/04/09 10:51:04;;;;;;;4.33;1.97;;;;;;;11.52;41.56;99691.41;4985060;28;20241;-62
2022/04/09 10:53:31;;;;;;;5.93;2.10;;;;;;;11.24;43.58;99692.38;4987167;28;20608;-62
2022/04/09 10:56:29;;;;;;;3.57;2.03;;;;;;;10.70;43.99;99700.88;4993161;28;20215;-62
2022/04/09 10:59:16;;;;;;;5.63;2.60;;;;;;;10.69;43.69;99700.03;4993585;28;20180;-62
2022/04/09 11:04:32;;;;;;;2.03;1.10;;;;;;;8.78;51.66;99719.44;4990478;28;20362;-59
2022/04/09 11:10:21;;;;;;;1.77;1.07;;;;;;;7.24;59.70;99742.34;4981675;28;20505;-62
2022/04/09 11:12:46;;;;;;;2.80;1.30;;;;;;;6.91;63.32;99752.38;4992290;28;20388;-61
2022/04/09 11:15:16;;;;;;;2.90;1.07;;;;;;;7.24;64.94;99754.28;4981052;28;20181;-61
2022/04/09 11:17:47;;;;;;;1.33;1.07;;;;;;;6.91;66.23;99762.63;4990605;28;20191;-61
2022/04/09 11:20:15;;;;;;;2.37;1.00;;;;;;;6.83;69.32;99755.25;4984417;28;20178;-61
2022/04/09 11:22:48;;;;;;;3.03;1.30;;;;;;;6.67;67.97;99770.44;4991330;28;20199;-61
2022/04/09 11:25:20;;;;;;;1.30;1.07;;;;;;;6.03;69.89;99776.56;4991236;28;20742;-60
2022/04/09 11:27:45;;;;;;;3.23;1.13;;;;;;;5.80;76.95;99768.06;4991929;28;20177;-61
2022/04/09 11:30:11;;;;;;;1.70;0.97;;;;;;;5.65;79.19;99779.72;4960548;28;20187;-62
2022/04/09 11:32:37;;;;;;;1.47;0.90;;;;;;;5.57;80.53;99774.94;4977583;28;20592;-61
2022/04/09 11:35:10;;;;;;;4.23;1.10;;;;;;;5.78;82.52;99770.69;4991314;28;20182;-62
2022/04/09 11:37:49;;;;;;;1.80;1.00;;;;;;;6.45;83.19;99763.72;4991722;28;20266;-61
2022/04/09 11:40:17;;;;;;;1.67;1.00;;;;;;;6.87;79.25;99766.19;4981398;28;20658;-62